sensor_id;sensor_type;location;lat;lon;timestamp;P1;durP1;ratioP1;P2;durP2;ratioP2
11539;SDS011;5826;54.756;9.192;2023-02-19T00:00:02;3.93;;;1.90;;
11539;SDS011;5826;54.756;9.192;2023-02-19T00:02:29;2.87;;;1.70;;
11539;SDS011;5826;54.756;9.192;2023-02-19T00:04:54;3.40;;;1.90;;
11539;SDS011;5826;54.756;9.192;2023-02-19T00:07:20;2.40;;;1.60;;
11539;SDS011;5826;54.756;9.192;2023-02-19T00:09:45;4.10;;;2.03;;
11539;SDS011;5826;54.756;9.192;2023-02-19T00:12:10;3.97;;;1.77;;
11539;SDS011;5826;54.756;9.192;2023-02-19T00:14:36;3.13;;;1.90;;
11539;SDS011;5826;54.756;9.192;2023-02-19T00:17:01;2.53;;;1.90;;
11539;SDS011;5826;54.756;9.192;2023-02-19T00:19:27;4.30;;;1.93;;
11539;SDS011;5826;54.756;9.192;2023-02-19T00:21:52;3.87;;;2.00;;
11539;SDS011;5826;54.756;9.192;2023-02-19T00:24:18;4.43;;;2.00;;
11539;SDS011;5826;54.756;9.192;2023-02-19T00:26:45;4.00;;;2.00;;
11539;SDS011;5826;54.756;9.192;2023-02-19T00:29:12;5.37;;;1.80;;
11539;SDS011;5826;54.756;9.192;2023-02-19T00:31:39;5.03;;;2.00;;
11539;SDS011;5826;54.756;9.192;2023-02-19T00:34:05;5.30;;;2.17;;
11539;SDS011;5826;54.756;9.192;2023-02-19T00:36:32;6.97;;;2.10;;
11539;SDS011;5826;54.756;9.192;2023-02-19T00:39:00;6.73;;;2.47;;
11539;SDS011;5826;54.756;9.192;2023-02-19T00:41:26;6.23;;;1.87;;
11539;SDS011;5826;54.756;9.192;2023-02-19T00:46:23;5.00;;;1.83;;
11539;SDS011;5826;54.756;9.192;2023-02-19T00:48:53;5.77;;;2.10;;
11539;SDS011;5826;54.756;9.192;2023-02-19T00:51:20;3.83;;;1.83;;
11539;SDS011;5826;54.756;9.192;2023-02-19T00:53:48;3.37;;;1.77;;
11539;SDS011;5826;54.756;9.192;2023-02-19T00:56:13;4.63;;;2.07;;
11539;SDS011;5826;54.756;9.192;2023-02-19T00:58:39;5.30;;;1.73;;
11539;SDS011;5826;54.756;9.192;2023-02-19T01:01:05;5.63;;;2.17;;
11539;SDS011;5826;54.756;9.192;2023-02-19T01:03:35;5.30;;;1.83;;
11539;SDS011;5826;54.756;9.192;2023-02-19T01:06:01;3.77;;;1.80;;
11539;SDS011;5826;54.756;9.192;2023-02-19T01:08:28;4.30;;;1.80;;
11539;SDS011;5826;54.756;9.192;2023-02-19T01:10:57;3.60;;;1.53;;
11539;SDS011;5826;54.756;9.192;2023-02-19T01:13:23;4.23;;;1.70;;
11539;SDS011;5826;54.756;9.192;2023-02-19T01:15:48;5.03;;;2.13;;
11539;SDS011;5826;54.756;9.192;2023-02-19T01:18:14;3.87;;;1.50;;
11539;SDS011;5826;54.756;9.192;2023-02-19T01:20:40;4.33;;;1.83;;
11539;SDS011;5826;54.756;9.192;2023-02-19T01:23:07;4.73;;;1.90;;
11539;SDS011;5826;54.756;9.192;2023-02-19T01:25:33;6.77;;;1.93;;
11539;SDS011;5826;54.756;9.192;2023-02-19T01:27:58;4.07;;;1.90;;
11539;SDS011;5826;54.756;9.192;2023-02-19T01:30:24;5.57;;;2.07;;
11539;SDS011;5826;54.756;9.192;2023-02-19T01:32:50;5.70;;;2.43;;
11539;SDS011;5826;54.756;9.192;2023-02-19T01:35:15;4.53;;;1.80;;
11539;SDS011;5826;54.756;9.192;2023-02-19T01:37:41;4.93;;;1.90;;
11539;SDS011;5826;54.756;9.192;2023-02-19T01:40:06;4.10;;;1.73;;
11539;SDS011;5826;54.756;9.192;2023-02-19T01:42:32;4.13;;;1.67;;
11539;SDS011;5826;54.756;9.192;2023-02-19T01:47:49;3.53;;;1.40;;
11539;SDS011;5826;54.756;9.192;2023-02-19T01:50:40;3.87;;;1.60;;
11539;SDS011;5826;54.756;9.192;2023-02-19T01:53:10;2.27;;;1.47;;
11539;SDS011;5826;54.756;9.192;2023-02-19T01:55:38;3.33;;;1.63;;
11539;SDS011;5826;54.756;9.192;2023-02-19T01:58:05;5.17;;;1.43;;
11539;SDS011;5826;54.756;9.192;2023-02-19T02:00:32;4.53;;;1.50;;
11539;SDS011;5826;54.756;9.192;2023-02-19T02:02:58;4.47;;;1.60;;
11539;SDS011;5826;54.756;9.192;2023-02-19T02:08:44;2.40;;;1.40;;
11539;SDS011;5826;54.756;9.192;2023-02-19T02:11:28;3.47;;;1.30;;
11539;SDS011;5826;54.756;9.192;2023-02-19T02:13:54;2.77;;;1.20;;
11539;SDS011;5826;54.756;9.192;2023-02-19T02:27:34;2.10;;;1.17;;
11539;SDS011;5826;54.756;9.192;2023-02-19T02:33:18;2.33;;;1.20;;
11539;SDS011;5826;54.756;9.192;2023-02-19T02:38:19;2.87;;;1.23;;
11539;SDS011;5826;54.756;9.192;2023-02-19T02:40:47;2.80;;;1.23;;
11539;SDS011;5826;54.756;9.192;2023-02-19T02:43:13;2.90;;;1.40;;
11539;SDS011;5826;54.756;9.192;2023-02-19T02:45:39;2.30;;;1.20;;
11539;SDS011;5826;54.756;9.192;2023-02-19T02:50:37;3.93;;;1.77;;
11539;SDS011;5826;54.756;9.192;2023-02-19T02:53:06;3.60;;;1.53;;
11539;SDS011;5826;54.756;9.192;2023-02-19T02:55:59;2.73;;;1.43;;
11539;SDS011;5826;54.756;9.192;2023-02-19T02:58:26;2.27;;;1.33;;
11539;SDS011;5826;54.756;9.192;2023-02-19T03:00:55;4.00;;;1.43;;
11539;SDS011;5826;54.756;9.192;2023-02-19T03:03:43;4.90;;;1.40;;
11539;SDS011;5826;54.756;9.192;2023-02-19T03:06:12;3.73;;;1.40;;
11539;SDS011;5826;54.756;9.192;2023-02-19T03:08:48;2.47;;;1.17;;
11539;SDS011;5826;54.756;9.192;2023-02-19T03:11:21;1.77;;;1.40;;
11539;SDS011;5826;54.756;9.192;2023-02-19T03:14:14;2.93;;;1.10;;
11539;SDS011;5826;54.756;9.192;2023-02-19T03:17:05;2.60;;;1.00;;
11539;SDS011;5826;54.756;9.192;2023-02-19T03:19:55;2.87;;;1.13;;
11539;SDS011;5826;54.756;9.192;2023-02-19T03:22:26;2.77;;;1.27;;
11539;SDS011;5826;54.756;9.192;2023-02-19T03:24:59;1.83;;;1.20;;
11539;SDS011;5826;54.756;9.192;2023-02-19T03:27:56;2.13;;;1.10;;
11539;SDS011;5826;54.756;9.192;2023-02-19T03:30:24;3.33;;;1.13;;
11539;SDS011;5826;54.756;9.192;2023-02-19T03:35:35;2.57;;;1.00;;
11539;SDS011;5826;54.756;9.192;2023-02-19T03:38:08;2.53;;;1.10;;
11539;SDS011;5826;54.756;9.192;2023-02-19T03:40:52;3.67;;;1.20;;
11539;SDS011;5826;54.756;9.192;2023-02-19T03:43:35;1.87;;;1.10;;
11539;SDS011;5826;54.756;9.192;2023-02-19T03:48:33;2.50;;;1.00;;
11539;SDS011;5826;54.756;9.192;2023-02-19T03:54:01;1.80;;;1.07;;
11539;SDS011;5826;54.756;9.192;2023-02-19T03:56:49;1.23;;;0.90;;
11539;SDS011;5826;54.756;9.192;2023-02-19T03:59:20;2.10;;;0.90;;
11539;SDS011;5826;54.756;9.192;2023-02-19T04:01:55;4.00;;;0.93;;
11539;SDS011;5826;54.756;9.192;2023-02-19T04:04:30;2.43;;;0.83;;
11539;SDS011;5826;54.756;9.192;2023-02-19T04:06:59;2.17;;;1.03;;
11539;SDS011;5826;54.756;9.192;2023-02-19T04:09:26;1.97;;;0.90;;
11539;SDS011;5826;54.756;9.192;2023-02-19T04:12:14;2.57;;;0.70;;
11539;SDS011;5826;54.756;9.192;2023-02-19T04:14:43;4.57;;;1.00;;
11539;SDS011;5826;54.756;9.192;2023-02-19T04:17:21;3.50;;;0.97;;
11539;SDS011;5826;54.756;9.192;2023-02-19T04:19:50;3.30;;;0.90;;
11539;SDS011;5826;54.756;9.192;2023-02-19T04:22:18;3.77;;;0.87;;
11539;SDS011;5826;54.756;9.192;2023-02-19T04:24:46;1.33;;;0.70;;
11539;SDS011;5826;54.756;9.192;2023-02-19T04:27:14;4.00;;;0.87;;
11539;SDS011;5826;54.756;9.192;2023-02-19T04:29:40;3.67;;;0.90;;
11539;SDS011;5826;54.756;9.192;2023-02-19T04:32:05;3.10;;;0.80;;
11539;SDS011;5826;54.756;9.192;2023-02-19T04:34:31;4.07;;;0.80;;
11539;SDS011;5826;54.756;9.192;2023-02-19T04:36:57;1.00;;;0.63;;
11539;SDS011;5826;54.756;9.192;2023-02-19T04:39:22;2.30;;;0.67;;
11539;SDS011;5826;54.756;9.192;2023-02-19T04:41:48;1.77;;;0.77;;
11539;SDS011;5826;54.756;9.192;2023-02-19T04:44:13;1.97;;;1.00;;
11539;SDS011;5826;54.756;9.192;2023-02-19T04:46:39;1.50;;;0.80;;
11539;SDS011;5826;54.756;9.192;2023-02-19T04:49:05;3.53;;;0.80;;
11539;SDS011;5826;54.756;9.192;2023-02-19T04:51:30;2.97;;;1.00;;
11539;SDS011;5826;54.756;9.192;2023-02-19T04:53:56;1.53;;;0.70;;
11539;SDS011;5826;54.756;9.192;2023-02-19T04:56:21;2.60;;;0.90;;
11539;SDS011;5826;54.756;9.192;2023-02-19T04:58:47;1.70;;;0.70;;
11539;SDS011;5826;54.756;9.192;2023-02-19T05:01:13;2.30;;;0.70;;
11539;SDS011;5826;54.756;9.192;2023-02-19T05:03:38;2.17;;;0.80;;
11539;SDS011;5826;54.756;9.192;2023-02-19T05:06:05;2.70;;;0.77;;
11539;SDS011;5826;54.756;9.192;2023-02-19T05:08:32;2.53;;;0.97;;
11539;SDS011;5826;54.756;9.192;2023-02-19T05:10:59;1.57;;;0.77;;
11539;SDS011;5826;54.756;9.192;2023-02-19T05:13:25;1.30;;;0.60;;
11539;SDS011;5826;54.756;9.192;2023-02-19T05:15:58;4.13;;;1.10;;
11539;SDS011;5826;54.756;9.192;2023-02-19T05:18:25;1.90;;;0.67;;
11539;SDS011;5826;54.756;9.192;2023-02-19T05:20:51;1.63;;;0.70;;
11539;SDS011;5826;54.756;9.192;2023-02-19T05:23:17;1.50;;;0.70;;
11539;SDS011;5826;54.756;9.192;2023-02-19T05:25:44;1.57;;;0.77;;
11539;SDS011;5826;54.756;9.192;2023-02-19T05:28:10;2.30;;;1.00;;
11539;SDS011;5826;54.756;9.192;2023-02-19T05:30:42;1.90;;;0.73;;
11539;SDS011;5826;54.756;9.192;2023-02-19T05:33:09;3.37;;;0.90;;
11539;SDS011;5826;54.756;9.192;2023-02-19T05:35:39;3.83;;;0.93;;
11539;SDS011;5826;54.756;9.192;2023-02-19T05:38:05;4.20;;;0.87;;
11539;SDS011;5826;54.756;9.192;2023-02-19T05:40:32;3.60;;;1.10;;
11539;SDS011;5826;54.756;9.192;2023-02-19T05:42:58;3.47;;;0.90;;
11539;SDS011;5826;54.756;9.192;2023-02-19T05:45:23;2.60;;;1.00;;
11539;SDS011;5826;54.756;9.192;2023-02-19T05:47:49;1.37;;;0.80;;
11539;SDS011;5826;54.756;9.192;2023-02-19T05:50:15;2.43;;;0.77;;
11539;SDS011;5826;54.756;9.192;2023-02-19T05:52:40;3.93;;;0.90;;
11539;SDS011;5826;54.756;9.192;2023-02-19T05:55:07;3.47;;;0.70;;
11539;SDS011;5826;54.756;9.192;2023-02-19T05:57:33;4.10;;;0.97;;
11539;SDS011;5826;54.756;9.192;2023-02-19T06:00:03;4.07;;;0.70;;
11539;SDS011;5826;54.756;9.192;2023-02-19T06:02:29;4.37;;;0.90;;
11539;SDS011;5826;54.756;9.192;2023-02-19T06:04:54;4.77;;;0.93;;
11539;SDS011;5826;54.756;9.192;2023-02-19T06:07:20;3.37;;;0.80;;
11539;SDS011;5826;54.756;9.192;2023-02-19T06:09:48;2.53;;;0.87;;
11539;SDS011;5826;54.756;9.192;2023-02-19T06:12:14;3.70;;;1.00;;
11539;SDS011;5826;54.756;9.192;2023-02-19T06:14:40;2.60;;;0.93;;
11539;SDS011;5826;54.756;9.192;2023-02-19T06:17:05;4.83;;;1.30;;
11539;SDS011;5826;54.756;9.192;2023-02-19T06:19:31;2.20;;;0.77;;
11539;SDS011;5826;54.756;9.192;2023-02-19T06:21:56;4.60;;;0.90;;
11539;SDS011;5826;54.756;9.192;2023-02-19T06:24:22;3.33;;;0.80;;
11539;SDS011;5826;54.756;9.192;2023-02-19T06:26:47;2.10;;;0.70;;
11539;SDS011;5826;54.756;9.192;2023-02-19T06:29:13;2.93;;;1.00;;
11539;SDS011;5826;54.756;9.192;2023-02-19T06:31:38;1.77;;;0.63;;
11539;SDS011;5826;54.756;9.192;2023-02-19T06:34:04;4.23;;;0.80;;
11539;SDS011;5826;54.756;9.192;2023-02-19T06:36:29;3.43;;;0.90;;
11539;SDS011;5826;54.756;9.192;2023-02-19T06:38:58;3.03;;;0.90;;
11539;SDS011;5826;54.756;9.192;2023-02-19T06:41:24;3.17;;;0.80;;
11539;SDS011;5826;54.756;9.192;2023-02-19T06:43:49;2.63;;;0.63;;
11539;SDS011;5826;54.756;9.192;2023-02-19T06:46:15;2.40;;;1.03;;
11539;SDS011;5826;54.756;9.192;2023-02-19T06:48:41;2.83;;;0.80;;
11539;SDS011;5826;54.756;9.192;2023-02-19T06:51:10;5.87;;;1.10;;
11539;SDS011;5826;54.756;9.192;2023-02-19T06:53:36;6.33;;;1.30;;
11539;SDS011;5826;54.756;9.192;2023-02-19T06:56:03;6.27;;;1.23;;
11539;SDS011;5826;54.756;9.192;2023-02-19T06:58:31;4.13;;;1.03;;
11539;SDS011;5826;54.756;9.192;2023-02-19T07:00:57;2.77;;;1.00;;
11539;SDS011;5826;54.756;9.192;2023-02-19T07:03:23;4.20;;;1.10;;
11539;SDS011;5826;54.756;9.192;2023-02-19T07:05:50;2.97;;;1.70;;
11539;SDS011;5826;54.756;9.192;2023-02-19T07:08:16;4.40;;;2.23;;
11539;SDS011;5826;54.756;9.192;2023-02-19T07:10:42;4.87;;;2.00;;
11539;SDS011;5826;54.756;9.192;2023-02-19T07:13:17;3.77;;;1.10;;
11539;SDS011;5826;54.756;9.192;2023-02-19T07:15:42;1.93;;;1.23;;
11539;SDS011;5826;54.756;9.192;2023-02-19T07:18:08;3.93;;;1.17;;
11539;SDS011;5826;54.756;9.192;2023-02-19T07:20:34;3.43;;;1.00;;
11539;SDS011;5826;54.756;9.192;2023-02-19T07:22:59;2.67;;;1.17;;
11539;SDS011;5826;54.756;9.192;2023-02-19T07:25:25;5.17;;;1.30;;
11539;SDS011;5826;54.756;9.192;2023-02-19T07:27:51;3.50;;;1.60;;
11539;SDS011;5826;54.756;9.192;2023-02-19T07:30:16;4.03;;;1.10;;
11539;SDS011;5826;54.756;9.192;2023-02-19T07:32:42;2.37;;;1.17;;
11539;SDS011;5826;54.756;9.192;2023-02-19T07:35:09;3.03;;;0.97;;
11539;SDS011;5826;54.756;9.192;2023-02-19T07:37:35;1.97;;;1.03;;
11539;SDS011;5826;54.756;9.192;2023-02-19T07:40:00;3.17;;;0.97;;
11539;SDS011;5826;54.756;9.192;2023-02-19T07:42:26;4.23;;;1.03;;
11539;SDS011;5826;54.756;9.192;2023-02-19T07:44:52;3.37;;;1.20;;
11539;SDS011;5826;54.756;9.192;2023-02-19T07:47:17;4.43;;;1.20;;
11539;SDS011;5826;54.756;9.192;2023-02-19T07:49:43;3.63;;;1.00;;
11539;SDS011;5826;54.756;9.192;2023-02-19T07:52:08;2.87;;;1.20;;
11539;SDS011;5826;54.756;9.192;2023-02-19T07:54:34;2.63;;;0.90;;
11539;SDS011;5826;54.756;9.192;2023-02-19T07:56:59;4.20;;;0.83;;
11539;SDS011;5826;54.756;9.192;2023-02-19T07:59:25;3.57;;;1.10;;
11539;SDS011;5826;54.756;9.192;2023-02-19T08:01:50;1.60;;;0.90;;
11539;SDS011;5826;54.756;9.192;2023-02-19T08:04:34;2.50;;;1.17;;
11539;SDS011;5826;54.756;9.192;2023-02-19T08:07:00;4.50;;;1.80;;
11539;SDS011;5826;54.756;9.192;2023-02-19T08:09:25;15.80;;;11.13;;
11539;SDS011;5826;54.756;9.192;2023-02-19T08:11:51;19.67;;;15.87;;
11539;SDS011;5826;54.756;9.192;2023-02-19T08:14:35;13.90;;;10.33;;
11539;SDS011;5826;54.756;9.192;2023-02-19T08:17:00;13.83;;;9.67;;
11539;SDS011;5826;54.756;9.192;2023-02-19T08:19:27;8.63;;;7.03;;
11539;SDS011;5826;54.756;9.192;2023-02-19T08:21:52;9.13;;;6.37;;
11539;SDS011;5826;54.756;9.192;2023-02-19T08:24:18;5.77;;;4.50;;
11539;SDS011;5826;54.756;9.192;2023-02-19T08:26:43;6.17;;;4.23;;
11539;SDS011;5826;54.756;9.192;2023-02-19T08:29:09;5.63;;;3.00;;
11539;SDS011;5826;54.756;9.192;2023-02-19T08:31:35;4.33;;;2.40;;
11539;SDS011;5826;54.756;9.192;2023-02-19T08:34:00;4.47;;;2.23;;
11539;SDS011;5826;54.756;9.192;2023-02-19T08:36:26;3.33;;;2.00;;
11539;SDS011;5826;54.756;9.192;2023-02-19T08:38:52;3.67;;;1.70;;
11539;SDS011;5826;54.756;9.192;2023-02-19T08:41:18;4.13;;;1.60;;
11539;SDS011;5826;54.756;9.192;2023-02-19T08:43:43;2.90;;;1.50;;
11539;SDS011;5826;54.756;9.192;2023-02-19T08:46:09;5.47;;;2.00;;
11539;SDS011;5826;54.756;9.192;2023-02-19T08:48:35;4.73;;;1.50;;
11539;SDS011;5826;54.756;9.192;2023-02-19T08:51:03;6.17;;;2.40;;
11539;SDS011;5826;54.756;9.192;2023-02-19T08:53:32;5.20;;;1.57;;
11539;SDS011;5826;54.756;9.192;2023-02-19T08:56:00;4.37;;;1.60;;
11539;SDS011;5826;54.756;9.192;2023-02-19T08:58:29;3.73;;;1.40;;
11539;SDS011;5826;54.756;9.192;2023-02-19T09:00:56;4.73;;;1.33;;
11539;SDS011;5826;54.756;9.192;2023-02-19T09:03:22;3.30;;;1.00;;
11539;SDS011;5826;54.756;9.192;2023-02-19T09:05:48;3.43;;;1.00;;
11539;SDS011;5826;54.756;9.192;2023-02-19T09:08:13;1.80;;;0.90;;
11539;SDS011;5826;54.756;9.192;2023-02-19T09:10:39;2.43;;;1.00;;
11539;SDS011;5826;54.756;9.192;2023-02-19T09:13:05;2.03;;;1.00;;
11539;SDS011;5826;54.756;9.192;2023-02-19T09:15:30;4.73;;;1.20;;
11539;SDS011;5826;54.756;9.192;2023-02-19T09:17:57;5.27;;;1.30;;
11539;SDS011;5826;54.756;9.192;2023-02-19T09:20:23;2.57;;;0.90;;
11539;SDS011;5826;54.756;9.192;2023-02-19T09:22:48;4.63;;;0.97;;
11539;SDS011;5826;54.756;9.192;2023-02-19T09:25:14;2.93;;;0.80;;
11539;SDS011;5826;54.756;9.192;2023-02-19T09:27:39;3.80;;;0.90;;
11539;SDS011;5826;54.756;9.192;2023-02-19T09:30:05;3.50;;;1.00;;
11539;SDS011;5826;54.756;9.192;2023-02-19T09:32:31;2.90;;;1.10;;
11539;SDS011;5826;54.756;9.192;2023-02-19T09:34:57;3.00;;;0.90;;
11539;SDS011;5826;54.756;9.192;2023-02-19T09:37:26;2.23;;;0.80;;
11539;SDS011;5826;54.756;9.192;2023-02-19T09:39:52;3.27;;;1.23;;
11539;SDS011;5826;54.756;9.192;2023-02-19T09:42:19;2.47;;;0.80;;
11539;SDS011;5826;54.756;9.192;2023-02-19T09:44:51;4.13;;;0.80;;
11539;SDS011;5826;54.756;9.192;2023-02-19T09:47:20;3.03;;;0.87;;
11539;SDS011;5826;54.756;9.192;2023-02-19T09:49:50;1.33;;;0.70;;
11539;SDS011;5826;54.756;9.192;2023-02-19T10:00:51;4.63;;;1.10;;
11539;SDS011;5826;54.756;9.192;2023-02-19T10:05:49;3.43;;;0.90;;
11539;SDS011;5826;54.756;9.192;2023-02-19T10:08:17;2.90;;;0.87;;
11539;SDS011;5826;54.756;9.192;2023-02-19T10:10:44;3.87;;;1.10;;
11539;SDS011;5826;54.756;9.192;2023-02-19T10:18:17;1.87;;;0.60;;
11539;SDS011;5826;54.756;9.192;2023-02-19T10:20:47;3.37;;;0.80;;
11539;SDS011;5826;54.756;9.192;2023-02-19T10:23:14;3.33;;;0.60;;
11539;SDS011;5826;54.756;9.192;2023-02-19T10:25:59;4.33;;;0.83;;
11539;SDS011;5826;54.756;9.192;2023-02-19T10:28:29;2.73;;;0.70;;
11539;SDS011;5826;54.756;9.192;2023-02-19T10:30:58;1.97;;;0.63;;
11539;SDS011;5826;54.756;9.192;2023-02-19T10:33:26;2.77;;;0.70;;
11539;SDS011;5826;54.756;9.192;2023-02-19T10:38:44;2.90;;;0.70;;
11539;SDS011;5826;54.756;9.192;2023-02-19T10:41:15;2.87;;;0.60;;
11539;SDS011;5826;54.756;9.192;2023-02-19T10:44:20;1.70;;;0.67;;
11539;SDS011;5826;54.756;9.192;2023-02-19T10:46:43;1.57;;;0.70;;
11539;SDS011;5826;54.756;9.192;2023-02-19T10:49:56;4.23;;;0.83;;
11539;SDS011;5826;54.756;9.192;2023-02-19T10:52:03;1.20;;;0.63;;
11539;SDS011;5826;54.756;9.192;2023-02-19T10:54:41;2.07;;;0.60;;
11539;SDS011;5826;54.756;9.192;2023-02-19T10:57:21;2.93;;;0.80;;
11539;SDS011;5826;54.756;9.192;2023-02-19T11:02:51;2.67;;;0.80;;
11539;SDS011;5826;54.756;9.192;2023-02-19T11:05:58;2.30;;;0.90;;
11539;SDS011;5826;54.756;9.192;2023-02-19T11:08:26;2.33;;;0.67;;
11539;SDS011;5826;54.756;9.192;2023-02-19T11:10:52;3.77;;;0.80;;
11539;SDS011;5826;54.756;9.192;2023-02-19T11:13:28;1.47;;;0.57;;
11539;SDS011;5826;54.756;9.192;2023-02-19T11:15:56;3.53;;;0.87;;
11539;SDS011;5826;54.756;9.192;2023-02-19T11:18:27;3.37;;;0.73;;
11539;SDS011;5826;54.756;9.192;2023-02-19T11:20:57;2.53;;;0.70;;
11539;SDS011;5826;54.756;9.192;2023-02-19T11:23:30;5.97;;;0.90;;
11539;SDS011;5826;54.756;9.192;2023-02-19T11:26:18;1.43;;;0.60;;
11539;SDS011;5826;54.756;9.192;2023-02-19T11:28:54;3.10;;;0.60;;
11539;SDS011;5826;54.756;9.192;2023-02-19T11:31:22;2.97;;;0.60;;
11539;SDS011;5826;54.756;9.192;2023-02-19T11:33:57;4.03;;;1.07;;
11539;SDS011;5826;54.756;9.192;2023-02-19T11:41:50;2.30;;;0.83;;
11539;SDS011;5826;54.756;9.192;2023-02-19T11:47:10;3.17;;;0.50;;
11539;SDS011;5826;54.756;9.192;2023-02-19T11:50:20;1.73;;;0.60;;
11539;SDS011;5826;54.756;9.192;2023-02-19T11:55:48;3.78;;;0.68;;
11539;SDS011;5826;54.756;9.192;2023-02-19T11:58:44;2.17;;;0.70;;
11539;SDS011;5826;54.756;9.192;2023-02-19T12:01:25;2.53;;;0.80;;
11539;SDS011;5826;54.756;9.192;2023-02-19T12:12:31;2.60;;;0.70;;
11539;SDS011;5826;54.756;9.192;2023-02-19T12:15:17;2.20;;;0.60;;
11539;SDS011;5826;54.756;9.192;2023-02-19T12:17:51;1.97;;;0.60;;
11539;SDS011;5826;54.756;9.192;2023-02-19T12:23:12;1.83;;;0.80;;
11539;SDS011;5826;54.756;9.192;2023-02-19T12:25:47;1.67;;;0.50;;
11539;SDS011;5826;54.756;9.192;2023-02-19T12:28:21;1.33;;;0.63;;
11539;SDS011;5826;54.756;9.192;2023-02-19T12:34:16;2.00;;;0.60;;
11539;SDS011;5826;54.756;9.192;2023-02-19T12:37:01;2.27;;;0.57;;
11539;SDS011;5826;54.756;9.192;2023-02-19T12:45:32;3.38;;;0.60;;
11539;SDS011;5826;54.756;9.192;2023-02-19T12:48:04;2.10;;;0.77;;
11539;SDS011;5826;54.756;9.192;2023-02-19T12:50:36;2.00;;;0.70;;
11539;SDS011;5826;54.756;9.192;2023-02-19T12:53:04;1.98;;;0.50;;
11539;SDS011;5826;54.756;9.192;2023-02-19T12:55:38;2.45;;;0.73;;
11539;SDS011;5826;54.756;9.192;2023-02-19T12:58:09;1.65;;;0.80;;
11539;SDS011;5826;54.756;9.192;2023-02-19T13:00:44;1.90;;;0.60;;
11539;SDS011;5826;54.756;9.192;2023-02-19T13:08:53;3.13;;;0.88;;
11539;SDS011;5826;54.756;9.192;2023-02-19T13:11:27;2.70;;;1.15;;
11539;SDS011;5826;54.756;9.192;2023-02-19T13:14:15;2.78;;;0.88;;
11539;SDS011;5826;54.756;9.192;2023-02-19T13:16:58;1.63;;;0.77;;
11539;SDS011;5826;54.756;9.192;2023-02-19T13:19:29;3.65;;;0.68;;
11539;SDS011;5826;54.756;9.192;2023-02-19T13:21:59;1.48;;;0.80;;
11539;SDS011;5826;54.756;9.192;2023-02-19T13:24:50;3.03;;;1.00;;
11539;SDS011;5826;54.756;9.192;2023-02-19T13:32:54;2.42;;;0.70;;
11539;SDS011;5826;54.756;9.192;2023-02-19T13:35:40;3.58;;;0.95;;
11539;SDS011;5826;54.756;9.192;2023-02-19T13:38:38;3.20;;;1.05;;
11539;SDS011;5826;54.756;9.192;2023-02-19T13:41:28;4.93;;;0.90;;
11539;SDS011;5826;54.756;9.192;2023-02-19T13:43:57;3.45;;;0.77;;
11539;SDS011;5826;54.756;9.192;2023-02-19T13:46:31;3.45;;;0.70;;
11539;SDS011;5826;54.756;9.192;2023-02-19T13:51:51;2.15;;;0.77;;
11539;SDS011;5826;54.756;9.192;2023-02-19T13:54:25;4.25;;;0.82;;
11539;SDS011;5826;54.756;9.192;2023-02-19T13:59:51;2.17;;;0.60;;
11539;SDS011;5826;54.756;9.192;2023-02-19T14:02:33;1.65;;;0.60;;
11539;SDS011;5826;54.756;9.192;2023-02-19T14:05:00;2.10;;;0.70;;
11539;SDS011;5826;54.756;9.192;2023-02-19T14:10:58;0.80;;;0.60;;
11539;SDS011;5826;54.756;9.192;2023-02-19T14:19:02;2.38;;;0.98;;
11539;SDS011;5826;54.756;9.192;2023-02-19T14:21:34;1.65;;;0.80;;
11539;SDS011;5826;54.756;9.192;2023-02-19T14:24:02;1.75;;;0.80;;
11539;SDS011;5826;54.756;9.192;2023-02-19T14:26:29;2.72;;;0.90;;
11539;SDS011;5826;54.756;9.192;2023-02-19T14:28:56;2.60;;;0.70;;
11539;SDS011;5826;54.756;9.192;2023-02-19T14:31:30;2.03;;;0.75;;
11539;SDS011;5826;54.756;9.192;2023-02-19T14:34:00;1.52;;;0.60;;
11539;SDS011;5826;54.756;9.192;2023-02-19T14:36:36;2.22;;;0.73;;
11539;SDS011;5826;54.756;9.192;2023-02-19T14:39:12;1.95;;;0.80;;
11539;SDS011;5826;54.756;9.192;2023-02-19T14:41:45;1.83;;;1.00;;
11539;SDS011;5826;54.756;9.192;2023-02-19T14:44:15;3.30;;;1.52;;
11539;SDS011;5826;54.756;9.192;2023-02-19T14:46:48;2.72;;;1.30;;
11539;SDS011;5826;54.756;9.192;2023-02-19T14:51:46;2.95;;;1.17;;
11539;SDS011;5826;54.756;9.192;2023-02-19T14:54:16;2.85;;;1.20;;
11539;SDS011;5826;54.756;9.192;2023-02-19T14:57:04;2.15;;;1.00;;
11539;SDS011;5826;54.756;9.192;2023-02-19T14:59:35;3.55;;;1.00;;
11539;SDS011;5826;54.756;9.192;2023-02-19T15:02:02;3.38;;;1.10;;
11539;SDS011;5826;54.756;9.192;2023-02-19T15:04:38;2.72;;;1.10;;
11539;SDS011;5826;54.756;9.192;2023-02-19T15:07:07;2.58;;;0.80;;
11539;SDS011;5826;54.756;9.192;2023-02-19T15:09:38;2.83;;;1.00;;
11539;SDS011;5826;54.756;9.192;2023-02-19T15:12:12;4.18;;;1.55;;
11539;SDS011;5826;54.756;9.192;2023-02-19T15:14:39;4.28;;;1.20;;
11539;SDS011;5826;54.756;9.192;2023-02-19T15:17:05;3.05;;;1.10;;
11539;SDS011;5826;54.756;9.192;2023-02-19T15:19:32;8.05;;;3.70;;
11539;SDS011;5826;54.756;9.192;2023-02-19T15:22:00;7.88;;;4.10;;
11539;SDS011;5826;54.756;9.192;2023-02-19T15:24:27;6.53;;;3.53;;
11539;SDS011;5826;54.756;9.192;2023-02-19T15:26:53;6.68;;;4.20;;
11539;SDS011;5826;54.756;9.192;2023-02-19T15:29:21;9.82;;;4.63;;
11539;SDS011;5826;54.756;9.192;2023-02-19T15:34:27;9.75;;;6.28;;
11539;SDS011;5826;54.756;9.192;2023-02-19T15:36:56;9.38;;;5.47;;
11539;SDS011;5826;54.756;9.192;2023-02-19T15:39:25;8.00;;;4.20;;
11539;SDS011;5826;54.756;9.192;2023-02-19T15:42:03;7.13;;;3.20;;
11539;SDS011;5826;54.756;9.192;2023-02-19T15:47:07;3.83;;;1.63;;
11539;SDS011;5826;54.756;9.192;2023-02-19T15:49:42;3.20;;;1.17;;
11539;SDS011;5826;54.756;9.192;2023-02-19T15:55:23;2.58;;;1.40;;
11539;SDS011;5826;54.756;9.192;2023-02-19T15:57:51;3.65;;;2.30;;
11539;SDS011;5826;54.756;9.192;2023-02-19T16:00:25;4.47;;;2.97;;
11539;SDS011;5826;54.756;9.192;2023-02-19T16:03:18;5.23;;;2.90;;
11539;SDS011;5826;54.756;9.192;2023-02-19T16:05:56;3.87;;;1.87;;
11539;SDS011;5826;54.756;9.192;2023-02-19T16:08:31;5.33;;;2.80;;
11539;SDS011;5826;54.756;9.192;2023-02-19T16:10:59;6.10;;;3.07;;
11539;SDS011;5826;54.756;9.192;2023-02-19T16:13:28;5.83;;;3.10;;
11539;SDS011;5826;54.756;9.192;2023-02-19T16:16:02;3.10;;;1.70;;
11539;SDS011;5826;54.756;9.192;2023-02-19T16:18:42;2.83;;;1.20;;
11539;SDS011;5826;54.756;9.192;2023-02-19T16:21:13;3.53;;;1.33;;
11539;SDS011;5826;54.756;9.192;2023-02-19T16:23:42;3.43;;;1.27;;
11539;SDS011;5826;54.756;9.192;2023-02-19T16:26:08;2.27;;;1.20;;
11539;SDS011;5826;54.756;9.192;2023-02-19T16:28:38;2.83;;;1.10;;
11539;SDS011;5826;54.756;9.192;2023-02-19T16:31:08;3.53;;;1.10;;
11539;SDS011;5826;54.756;9.192;2023-02-19T16:36:19;2.97;;;0.90;;
11539;SDS011;5826;54.756;9.192;2023-02-19T16:38:57;2.60;;;1.10;;
11539;SDS011;5826;54.756;9.192;2023-02-19T16:41:32;3.07;;;1.33;;
11539;SDS011;5826;54.756;9.192;2023-02-19T16:43:58;2.50;;;1.23;;
11539;SDS011;5826;54.756;9.192;2023-02-19T16:46:30;3.73;;;1.17;;
11539;SDS011;5826;54.756;9.192;2023-02-19T16:48:56;5.00;;;1.20;;
11539;SDS011;5826;54.756;9.192;2023-02-19T16:51:23;7.93;;;3.57;;
11539;SDS011;5826;54.756;9.192;2023-02-19T16:53:50;6.40;;;3.40;;
11539;SDS011;5826;54.756;9.192;2023-02-19T16:56:16;2.67;;;1.80;;
11539;SDS011;5826;54.756;9.192;2023-02-19T16:58:45;4.33;;;2.23;;
11539;SDS011;5826;54.756;9.192;2023-02-19T17:01:10;2.53;;;1.60;;
11539;SDS011;5826;54.756;9.192;2023-02-19T17:03:37;4.87;;;1.90;;
11539;SDS011;5826;54.756;9.192;2023-02-19T17:06:03;3.53;;;1.47;;
11539;SDS011;5826;54.756;9.192;2023-02-19T17:11:06;3.60;;;2.00;;
11539;SDS011;5826;54.756;9.192;2023-02-19T17:13:35;6.00;;;2.00;;
11539;SDS011;5826;54.756;9.192;2023-02-19T17:16:00;3.10;;;2.00;;
11539;SDS011;5826;54.756;9.192;2023-02-19T17:18:26;3.80;;;1.60;;
11539;SDS011;5826;54.756;9.192;2023-02-19T17:23:23;3.03;;;1.70;;
11539;SDS011;5826;54.756;9.192;2023-02-19T17:25:48;3.87;;;1.50;;
11539;SDS011;5826;54.756;9.192;2023-02-19T17:28:14;3.30;;;1.53;;
11539;SDS011;5826;54.756;9.192;2023-02-19T17:30:39;2.03;;;1.50;;